sensor_id;sensor_type;location;lat;lon;timestamp;P1;durP1;ratioP1;P2;durP2;ratioP2
59512;SDS011;45330;51.634;5.562;2023-02-15T00:00:03;47.20;;;27.73;;
59512;SDS011;45330;51.634;5.562;2023-02-15T00:02:30;45.92;;;26.25;;
59512;SDS011;45330;51.634;5.562;2023-02-15T00:04:56;43.90;;;26.50;;
59512;SDS011;45330;51.634;5.562;2023-02-15T00:07:21;44.90;;;26.77;;
59512;SDS011;45330;51.634;5.562;2023-02-15T00:09:46;45.35;;;26.13;;
59512;SDS011;45330;51.634;5.562;2023-02-15T00:12:12;50.05;;;27.35;;
59512;SDS011;45330;51.634;5.562;2023-02-15T00:14:38;46.13;;;27.02;;
59512;SDS011;45330;51.634;5.562;2023-02-15T00:17:04;48.28;;;26.75;;
59512;SDS011;45330;51.634;5.562;2023-02-15T00:19:29;45.70;;;27.58;;
59512;SDS011;45330;51.634;5.562;2023-02-15T00:21:54;48.03;;;26.77;;
59512;SDS011;45330;51.634;5.562;2023-02-15T00:24:20;48.50;;;27.50;;
59512;SDS011;45330;51.634;5.562;2023-02-15T00:26:46;45.05;;;26.38;;
59512;SDS011;45330;51.634;5.562;2023-02-15T00:29:13;46.35;;;27.02;;
59512;SDS011;45330;51.634;5.562;2023-02-15T00:31:40;46.65;;;26.83;;
59512;SDS011;45330;51.634;5.562;2023-02-15T00:34:06;46.75;;;27.13;;
59512;SDS011;45330;51.634;5.562;2023-02-15T00:36:35;44.38;;;27.33;;
59512;SDS011;45330;51.634;5.562;2023-02-15T00:39:01;48.85;;;27.30;;
59512;SDS011;45330;51.634;5.562;2023-02-15T00:41:26;46.42;;;27.45;;
59512;SDS011;45330;51.634;5.562;2023-02-15T00:43:51;46.85;;;26.27;;
59512;SDS011;45330;51.634;5.562;2023-02-15T00:46:17;45.45;;;25.70;;
59512;SDS011;45330;51.634;5.562;2023-02-15T00:48:42;46.33;;;26.00;;
59512;SDS011;45330;51.634;5.562;2023-02-15T00:51:08;47.42;;;26.45;;
59512;SDS011;45330;51.634;5.562;2023-02-15T00:53:33;50.13;;;26.67;;
59512;SDS011;45330;51.634;5.562;2023-02-15T00:55:58;50.90;;;28.38;;
59512;SDS011;45330;51.634;5.562;2023-02-15T00:58:24;48.63;;;27.95;;
59512;SDS011;45330;51.634;5.562;2023-02-15T01:00:50;44.83;;;26.00;;
59512;SDS011;45330;51.634;5.562;2023-02-15T01:03:16;49.58;;;27.65;;
59512;SDS011;45330;51.634;5.562;2023-02-15T01:05:43;47.42;;;25.73;;
59512;SDS011;45330;51.634;5.562;2023-02-15T01:08:08;46.67;;;25.77;;
59512;SDS011;45330;51.634;5.562;2023-02-15T01:10:34;45.40;;;25.95;;
59512;SDS011;45330;51.634;5.562;2023-02-15T01:13:00;46.03;;;26.70;;
59512;SDS011;45330;51.634;5.562;2023-02-15T01:15:26;45.45;;;25.63;;
59512;SDS011;45330;51.634;5.562;2023-02-15T01:17:51;44.22;;;26.42;;
59512;SDS011;45330;51.634;5.562;2023-02-15T01:20:22;50.58;;;27.08;;
59512;SDS011;45330;51.634;5.562;2023-02-15T01:22:50;49.25;;;26.35;;
59512;SDS011;45330;51.634;5.562;2023-02-15T01:25:17;49.95;;;27.60;;
59512;SDS011;45330;51.634;5.562;2023-02-15T01:27:43;47.90;;;27.33;;
59512;SDS011;45330;51.634;5.562;2023-02-15T01:30:08;54.42;;;28.00;;
59512;SDS011;45330;51.634;5.562;2023-02-15T01:32:34;53.15;;;27.08;;
59512;SDS011;45330;51.634;5.562;2023-02-15T01:35:00;48.92;;;26.33;;
59512;SDS011;45330;51.634;5.562;2023-02-15T01:37:25;47.08;;;25.70;;
59512;SDS011;45330;51.634;5.562;2023-02-15T01:39:51;48.60;;;26.00;;
59512;SDS011;45330;51.634;5.562;2023-02-15T01:42:26;49.63;;;28.13;;
59512;SDS011;45330;51.634;5.562;2023-02-15T01:44:56;48.45;;;26.70;;
59512;SDS011;45330;51.634;5.562;2023-02-15T01:47:30;49.67;;;26.20;;
59512;SDS011;45330;51.634;5.562;2023-02-15T01:53:18;45.08;;;24.77;;
59512;SDS011;45330;51.634;5.562;2023-02-15T01:55:43;45.00;;;26.13;;
59512;SDS011;45330;51.634;5.562;2023-02-15T01:58:15;44.22;;;24.35;;
59512;SDS011;45330;51.634;5.562;2023-02-15T02:00:41;44.95;;;25.15;;
59512;SDS011;45330;51.634;5.562;2023-02-15T02:03:08;48.50;;;25.88;;
59512;SDS011;45330;51.634;5.562;2023-02-15T02:05:33;44.38;;;25.88;;
59512;SDS011;45330;51.634;5.562;2023-02-15T02:07:59;48.33;;;27.38;;
59512;SDS011;45330;51.634;5.562;2023-02-15T02:10:27;48.72;;;28.20;;
59512;SDS011;45330;51.634;5.562;2023-02-15T02:12:54;49.55;;;27.67;;
59512;SDS011;45330;51.634;5.562;2023-02-15T02:15:33;44.90;;;25.52;;
59512;SDS011;45330;51.634;5.562;2023-02-15T02:18:21;48.25;;;26.10;;
59512;SDS011;45330;51.634;5.562;2023-02-15T02:23:56;49.88;;;26.13;;
59512;SDS011;45330;51.634;5.562;2023-02-15T02:35:38;47.72;;;26.38;;
59512;SDS011;45330;51.634;5.562;2023-02-15T02:46:44;46.20;;;25.42;;
59512;SDS011;45330;51.634;5.562;2023-02-15T02:49:15;48.78;;;26.90;;
59512;SDS011;45330;51.634;5.562;2023-02-15T02:51:41;48.00;;;26.08;;
59512;SDS011;45330;51.634;5.562;2023-02-15T02:54:06;49.63;;;26.38;;
59512;SDS011;45330;51.634;5.562;2023-02-15T02:56:36;48.00;;;26.58;;
59512;SDS011;45330;51.634;5.562;2023-02-15T03:01:43;50.13;;;26.95;;
59512;SDS011;45330;51.634;5.562;2023-02-15T03:04:35;54.28;;;26.83;;
59512;SDS011;45330;51.634;5.562;2023-02-15T03:07:04;47.65;;;26.98;;
59512;SDS011;45330;51.634;5.562;2023-02-15T03:09:37;50.60;;;27.98;;
59512;SDS011;45330;51.634;5.562;2023-02-15T03:12:10;50.58;;;27.70;;
59512;SDS011;45330;51.634;5.562;2023-02-15T03:14:36;55.50;;;28.63;;
59512;SDS011;45330;51.634;5.562;2023-02-15T03:17:04;53.88;;;28.67;;
59512;SDS011;45330;51.634;5.562;2023-02-15T03:19:32;53.67;;;28.23;;
59512;SDS011;45330;51.634;5.562;2023-02-15T03:22:12;54.95;;;29.35;;
59512;SDS011;45330;51.634;5.562;2023-02-15T03:24:53;52.53;;;28.35;;
59512;SDS011;45330;51.634;5.562;2023-02-15T03:27:25;51.58;;;28.63;;
59512;SDS011;45330;51.634;5.562;2023-02-15T03:29:58;52.28;;;28.75;;
59512;SDS011;45330;51.634;5.562;2023-02-15T03:32:25;54.85;;;29.05;;
59512;SDS011;45330;51.634;5.562;2023-02-15T03:34:55;58.50;;;29.85;;
59512;SDS011;45330;51.634;5.562;2023-02-15T03:37:29;56.60;;;28.38;;
59512;SDS011;45330;51.634;5.562;2023-02-15T03:40:10;57.63;;;30.20;;
59512;SDS011;45330;51.634;5.562;2023-02-15T03:43:04;57.42;;;29.35;;
59512;SDS011;45330;51.634;5.562;2023-02-15T03:45:57;54.30;;;27.45;;
59512;SDS011;45330;51.634;5.562;2023-02-15T03:48:36;54.67;;;28.58;;
59512;SDS011;45330;51.634;5.562;2023-02-15T03:51:05;55.63;;;29.17;;
59512;SDS011;45330;51.634;5.562;2023-02-15T03:53:52;54.05;;;28.08;;
59512;SDS011;45330;51.634;5.562;2023-02-15T03:56:19;56.47;;;28.75;;
59512;SDS011;45330;51.634;5.562;2023-02-15T03:58:45;55.40;;;29.80;;
59512;SDS011;45330;51.634;5.562;2023-02-15T04:04:33;55.67;;;28.50;;
59512;SDS011;45330;51.634;5.562;2023-02-15T04:07:01;57.55;;;29.27;;
59512;SDS011;45330;51.634;5.562;2023-02-15T04:09:27;54.88;;;27.77;;
59512;SDS011;45330;51.634;5.562;2023-02-15T04:12:11;54.20;;;27.83;;
59512;SDS011;45330;51.634;5.562;2023-02-15T04:14:37;52.92;;;26.83;;
59512;SDS011;45330;51.634;5.562;2023-02-15T04:17:21;50.60;;;27.60;;
59512;SDS011;45330;51.634;5.562;2023-02-15T04:19:46;55.08;;;28.65;;
59512;SDS011;45330;51.634;5.562;2023-02-15T04:22:30;57.50;;;27.75;;
59512;SDS011;45330;51.634;5.562;2023-02-15T04:25:14;52.47;;;26.45;;
59512;SDS011;45330;51.634;5.562;2023-02-15T04:27:44;51.17;;;26.90;;
59512;SDS011;45330;51.634;5.562;2023-02-15T04:30:12;58.53;;;28.13;;
59512;SDS011;45330;51.634;5.562;2023-02-15T04:32:39;56.35;;;28.58;;
59512;SDS011;45330;51.634;5.562;2023-02-15T04:35:05;55.90;;;27.63;;
59512;SDS011;45330;51.634;5.562;2023-02-15T04:37:32;55.30;;;29.33;;
59512;SDS011;45330;51.634;5.562;2023-02-15T04:39:57;52.45;;;27.42;;
59512;SDS011;45330;51.634;5.562;2023-02-15T04:42:26;55.10;;;27.98;;
59512;SDS011;45330;51.634;5.562;2023-02-15T04:44:51;55.75;;;29.30;;
59512;SDS011;45330;51.634;5.562;2023-02-15T04:47:17;61.90;;;29.65;;
59512;SDS011;45330;51.634;5.562;2023-02-15T04:49:43;52.25;;;28.40;;
59512;SDS011;45330;51.634;5.562;2023-02-15T04:52:08;55.25;;;29.02;;
59512;SDS011;45330;51.634;5.562;2023-02-15T04:54:34;56.17;;;28.05;;
59512;SDS011;45330;51.634;5.562;2023-02-15T04:57:00;57.33;;;28.95;;
59512;SDS011;45330;51.634;5.562;2023-02-15T04:59:25;61.83;;;29.42;;
59512;SDS011;45330;51.634;5.562;2023-02-15T05:01:50;59.30;;;28.48;;
59512;SDS011;45330;51.634;5.562;2023-02-15T05:04:16;54.53;;;27.98;;
59512;SDS011;45330;51.634;5.562;2023-02-15T05:06:41;59.78;;;29.27;;
59512;SDS011;45330;51.634;5.562;2023-02-15T05:09:06;54.58;;;28.65;;
59512;SDS011;45330;51.634;5.562;2023-02-15T05:11:32;60.78;;;29.27;;
59512;SDS011;45330;51.634;5.562;2023-02-15T05:13:57;56.97;;;28.98;;
59512;SDS011;45330;51.634;5.562;2023-02-15T05:16:23;61.50;;;29.13;;
59512;SDS011;45330;51.634;5.562;2023-02-15T05:18:48;58.53;;;29.08;;
59512;SDS011;45330;51.634;5.562;2023-02-15T05:21:14;61.25;;;29.65;;
59512;SDS011;45330;51.634;5.562;2023-02-15T05:23:41;57.03;;;28.75;;
59512;SDS011;45330;51.634;5.562;2023-02-15T05:26:15;57.40;;;29.17;;
59512;SDS011;45330;51.634;5.562;2023-02-15T05:29:01;60.97;;;29.48;;
59512;SDS011;45330;51.634;5.562;2023-02-15T05:31:27;64.15;;;29.45;;
59512;SDS011;45330;51.634;5.562;2023-02-15T05:33:53;63.03;;;29.67;;
59512;SDS011;45330;51.634;5.562;2023-02-15T05:36:18;61.72;;;29.65;;
59512;SDS011;45330;51.634;5.562;2023-02-15T05:38:44;55.25;;;29.88;;
59512;SDS011;45330;51.634;5.562;2023-02-15T05:41:09;60.60;;;29.70;;
59512;SDS011;45330;51.634;5.562;2023-02-15T05:43:36;61.22;;;29.92;;
59512;SDS011;45330;51.634;5.562;2023-02-15T05:46:03;59.25;;;29.77;;
59512;SDS011;45330;51.634;5.562;2023-02-15T05:48:29;58.50;;;29.70;;
59512;SDS011;45330;51.634;5.562;2023-02-15T05:53:25;60.95;;;29.75;;
59512;SDS011;45330;51.634;5.562;2023-02-15T05:55:51;57.70;;;29.42;;
59512;SDS011;45330;51.634;5.562;2023-02-15T05:58:17;61.78;;;29.63;;
59512;SDS011;45330;51.634;5.562;2023-02-15T06:00:42;61.45;;;29.33;;
59512;SDS011;45330;51.634;5.562;2023-02-15T06:03:08;54.83;;;28.33;;
59512;SDS011;45330;51.634;5.562;2023-02-15T06:05:33;62.72;;;29.48;;
59512;SDS011;45330;51.634;5.562;2023-02-15T06:07:59;60.33;;;28.95;;
59512;SDS011;45330;51.634;5.562;2023-02-15T06:10:24;58.17;;;30.15;;
59512;SDS011;45330;51.634;5.562;2023-02-15T06:12:49;56.65;;;28.35;;
59512;SDS011;45330;51.634;5.562;2023-02-15T06:15:15;59.63;;;30.42;;
59512;SDS011;45330;51.634;5.562;2023-02-15T06:17:41;64.10;;;29.90;;
59512;SDS011;45330;51.634;5.562;2023-02-15T06:20:07;60.78;;;29.98;;
59512;SDS011;45330;51.634;5.562;2023-02-15T06:22:33;63.17;;;30.70;;
59512;SDS011;45330;51.634;5.562;2023-02-15T06:24:59;65.78;;;30.85;;
59512;SDS011;45330;51.634;5.562;2023-02-15T06:27:24;67.05;;;30.55;;
59512;SDS011;45330;51.634;5.562;2023-02-15T06:29:50;61.65;;;30.00;;
59512;SDS011;45330;51.634;5.562;2023-02-15T06:32:15;64.72;;;31.00;;
59512;SDS011;45330;51.634;5.562;2023-02-15T06:34:40;66.50;;;31.27;;
59512;SDS011;45330;51.634;5.562;2023-02-15T06:37:06;65.22;;;30.65;;
59512;SDS011;45330;51.634;5.562;2023-02-15T06:39:33;71.85;;;31.27;;
59512;SDS011;45330;51.634;5.562;2023-02-15T06:41:58;64.40;;;30.80;;
59512;SDS011;45330;51.634;5.562;2023-02-15T06:44:24;67.35;;;30.90;;
59512;SDS011;45330;51.634;5.562;2023-02-15T06:46:49;66.57;;;31.45;;
59512;SDS011;45330;51.634;5.562;2023-02-15T06:49:14;69.20;;;31.92;;
59512;SDS011;45330;51.634;5.562;2023-02-15T06:51:40;70.72;;;31.10;;
59512;SDS011;45330;51.634;5.562;2023-02-15T06:54:05;69.03;;;31.10;;
59512;SDS011;45330;51.634;5.562;2023-02-15T06:56:31;68.07;;;30.75;;
59512;SDS011;45330;51.634;5.562;2023-02-15T06:58:56;68.82;;;32.67;;
59512;SDS011;45330;51.634;5.562;2023-02-15T07:01:21;73.60;;;33.05;;
59512;SDS011;45330;51.634;5.562;2023-02-15T07:03:47;63.58;;;31.00;;
59512;SDS011;45330;51.634;5.562;2023-02-15T07:06:12;68.95;;;32.75;;
59512;SDS011;45330;51.634;5.562;2023-02-15T07:08:38;66.90;;;30.95;;
59512;SDS011;45330;51.634;5.562;2023-02-15T07:11:04;71.32;;;32.88;;
59512;SDS011;45330;51.634;5.562;2023-02-15T07:13:49;69.05;;;32.28;;
59512;SDS011;45330;51.634;5.562;2023-02-15T07:16:14;69.13;;;31.05;;
59512;SDS011;45330;51.634;5.562;2023-02-15T07:18:40;65.97;;;31.35;;
59512;SDS011;45330;51.634;5.562;2023-02-15T07:21:06;66.93;;;32.65;;
59512;SDS011;45330;51.634;5.562;2023-02-15T07:23:38;70.07;;;33.35;;
59512;SDS011;45330;51.634;5.562;2023-02-15T07:26:05;68.55;;;31.88;;
59512;SDS011;45330;51.634;5.562;2023-02-15T07:28:32;70.75;;;33.72;;
59512;SDS011;45330;51.634;5.562;2023-02-15T07:31:01;69.80;;;32.80;;
59512;SDS011;45330;51.634;5.562;2023-02-15T07:33:27;74.68;;;33.35;;
59512;SDS011;45330;51.634;5.562;2023-02-15T07:35:54;71.63;;;33.92;;
59512;SDS011;45330;51.634;5.562;2023-02-15T07:38:23;72.07;;;33.28;;
59512;SDS011;45330;51.634;5.562;2023-02-15T07:40:49;71.95;;;34.75;;
59512;SDS011;45330;51.634;5.562;2023-02-15T07:43:14;74.45;;;34.17;;
59512;SDS011;45330;51.634;5.562;2023-02-15T07:45:40;71.78;;;36.08;;
59512;SDS011;45330;51.634;5.562;2023-02-15T07:48:05;75.05;;;35.95;;
59512;SDS011;45330;51.634;5.562;2023-02-15T07:50:32;76.57;;;35.92;;
59512;SDS011;45330;51.634;5.562;2023-02-15T07:52:58;83.93;;;36.53;;
59512;SDS011;45330;51.634;5.562;2023-02-15T07:55:23;71.93;;;34.15;;
59512;SDS011;45330;51.634;5.562;2023-02-15T07:57:49;75.65;;;36.17;;
59512;SDS011;45330;51.634;5.562;2023-02-15T08:00:16;75.03;;;36.33;;
59512;SDS011;45330;51.634;5.562;2023-02-15T08:02:48;74.38;;;36.67;;
59512;SDS011;45330;51.634;5.562;2023-02-15T08:05:34;79.68;;;37.90;;
59512;SDS011;45330;51.634;5.562;2023-02-15T08:08:00;75.05;;;36.15;;
59512;SDS011;45330;51.634;5.562;2023-02-15T08:10:25;79.15;;;37.17;;
59512;SDS011;45330;51.634;5.562;2023-02-15T08:13:11;74.97;;;37.03;;
59512;SDS011;45330;51.634;5.562;2023-02-15T08:15:36;79.43;;;36.22;;
59512;SDS011;45330;51.634;5.562;2023-02-15T08:18:01;84.80;;;37.75;;
59512;SDS011;45330;51.634;5.562;2023-02-15T08:20:27;82.38;;;38.38;;
59512;SDS011;45330;51.634;5.562;2023-02-15T08:22:52;82.95;;;39.13;;
59512;SDS011;45330;51.634;5.562;2023-02-15T08:25:18;83.68;;;39.22;;
59512;SDS011;45330;51.634;5.562;2023-02-15T08:27:43;77.80;;;39.85;;
59512;SDS011;45330;51.634;5.562;2023-02-15T08:30:08;91.97;;;39.42;;
59512;SDS011;45330;51.634;5.562;2023-02-15T08:32:34;75.07;;;38.83;;
59512;SDS011;45330;51.634;5.562;2023-02-15T08:35:00;77.90;;;38.70;;
59512;SDS011;45330;51.634;5.562;2023-02-15T08:37:25;83.53;;;39.17;;
59512;SDS011;45330;51.634;5.562;2023-02-15T08:39:51;74.57;;;38.13;;
59512;SDS011;45330;51.634;5.562;2023-02-15T08:42:16;78.10;;;39.45;;
59512;SDS011;45330;51.634;5.562;2023-02-15T08:44:42;80.30;;;39.80;;
59512;SDS011;45330;51.634;5.562;2023-02-15T08:47:07;70.63;;;37.88;;
59512;SDS011;45330;51.634;5.562;2023-02-15T08:49:32;73.72;;;39.25;;
59512;SDS011;45330;51.634;5.562;2023-02-15T08:51:58;72.85;;;38.40;;
59512;SDS011;45330;51.634;5.562;2023-02-15T08:54:24;77.38;;;40.88;;
59512;SDS011;45330;51.634;5.562;2023-02-15T08:56:50;69.43;;;37.20;;
59512;SDS011;45330;51.634;5.562;2023-02-15T08:59:19;75.45;;;39.40;;
59512;SDS011;45330;51.634;5.562;2023-02-15T09:01:47;69.47;;;37.03;;
59512;SDS011;45330;51.634;5.562;2023-02-15T09:04:13;74.72;;;38.60;;
59512;SDS011;45330;51.634;5.562;2023-02-15T09:06:41;71.25;;;38.42;;
59512;SDS011;45330;51.634;5.562;2023-02-15T09:09:09;70.32;;;37.65;;
59512;SDS011;45330;51.634;5.562;2023-02-15T09:11:36;71.88;;;38.08;;
59512;SDS011;45330;51.634;5.562;2023-02-15T09:14:13;69.07;;;38.75;;
59512;SDS011;45330;51.634;5.562;2023-02-15T09:16:43;65.68;;;37.97;;
59512;SDS011;45330;51.634;5.562;2023-02-15T09:19:13;69.75;;;37.80;;
59512;SDS011;45330;51.634;5.562;2023-02-15T09:21:39;63.28;;;36.78;;
59512;SDS011;45330;51.634;5.562;2023-02-15T09:24:06;66.47;;;37.60;;
59512;SDS011;45330;51.634;5.562;2023-02-15T09:26:34;64.63;;;37.17;;
59512;SDS011;45330;51.634;5.562;2023-02-15T09:29:01;65.25;;;37.80;;
59512;SDS011;45330;51.634;5.562;2023-02-15T09:31:29;67.65;;;38.30;;
59512;SDS011;45330;51.634;5.562;2023-02-15T09:33:57;61.97;;;36.35;;
59512;SDS011;45330;51.634;5.562;2023-02-15T09:36:44;61.70;;;36.25;;
59512;SDS011;45330;51.634;5.562;2023-02-15T09:55:41;56.83;;;34.28;;
59512;SDS011;45330;51.634;5.562;2023-02-15T09:58:30;56.40;;;35.28;;
59512;SDS011;45330;51.634;5.562;2023-02-15T10:29:19;46.25;;;28.75;;
59512;SDS011;45330;51.634;5.562;2023-02-15T10:37:41;44.83;;;27.77;;
59512;SDS011;45330;51.634;5.562;2023-02-15T10:46:12;45.45;;;26.65;;
59512;SDS011;45330;51.634;5.562;2023-02-15T10:52:03;40.75;;;25.45;;
59512;SDS011;45330;51.634;5.562;2023-02-15T10:54:37;40.35;;;24.70;;
59512;SDS011;45330;51.634;5.562;2023-02-15T11:02:25;41.38;;;24.77;;
59512;SDS011;45330;51.634;5.562;2023-02-15T11:07:47;38.28;;;23.27;;
59512;SDS011;45330;51.634;5.562;2023-02-15T11:12:51;38.50;;;23.60;;
59512;SDS011;45330;51.634;5.562;2023-02-15T11:15:35;39.63;;;23.30;;
59512;SDS011;45330;51.634;5.562;2023-02-15T11:21:21;38.35;;;22.33;;
59512;SDS011;45330;51.634;5.562;2023-02-15T11:23:51;38.80;;;22.92;;
59512;SDS011;45330;51.634;5.562;2023-02-15T11:26:19;38.47;;;23.23;;
59512;SDS011;45330;51.634;5.562;2023-02-15T11:28:51;37.55;;;21.48;;
59512;SDS011;45330;51.634;5.562;2023-02-15T11:31:21;37.58;;;21.90;;
59512;SDS011;45330;51.634;5.562;2023-02-15T11:33:52;38.30;;;22.63;;
59512;SDS011;45330;51.634;5.562;2023-02-15T11:36:37;41.03;;;22.40;;
59512;SDS011;45330;51.634;5.562;2023-02-15T11:39:09;37.88;;;23.38;;
59512;SDS011;45330;51.634;5.562;2023-02-15T11:41:39;37.35;;;22.45;;
59512;SDS011;45330;51.634;5.562;2023-02-15T11:44:29;36.35;;;21.45;;
59512;SDS011;45330;51.634;5.562;2023-02-15T11:46:59;37.30;;;22.48;;
59512;SDS011;45330;51.634;5.562;2023-02-15T11:49:33;37.55;;;22.83;;
59512;SDS011;45330;51.634;5.562;2023-02-15T11:52:00;36.08;;;21.33;;
59512;SDS011;45330;51.634;5.562;2023-02-15T11:54:34;38.85;;;21.27;;
59512;SDS011;45330;51.634;5.562;2023-02-15T11:57:10;35.33;;;20.60;;
59512;SDS011;45330;51.634;5.562;2023-02-15T11:59:45;36.13;;;20.08;;
59512;SDS011;45330;51.634;5.562;2023-02-15T12:02:21;34.45;;;18.52;;
59512;SDS011;45330;51.634;5.562;2023-02-15T12:05:07;34.53;;;19.10;;
59512;SDS011;45330;51.634;5.562;2023-02-15T12:07:40;33.08;;;18.40;;
59512;SDS011;45330;51.634;5.562;2023-02-15T12:10:22;34.05;;;18.80;;
59512;SDS011;45330;51.634;5.562;2023-02-15T12:15:34;33.35;;;19.08;;
59512;SDS011;45330;51.634;5.562;2023-02-15T12:18:00;35.35;;;19.00;;
59512;SDS011;45330;51.634;5.562;2023-02-15T12:20:28;35.42;;;18.35;;
59512;SDS011;45330;51.634;5.562;2023-02-15T12:23:00;34.38;;;19.00;;
59512;SDS011;45330;51.634;5.562;2023-02-15T12:30:45;32.80;;;19.20;;
59512;SDS011;45330;51.634;5.562;2023-02-15T12:35:56;34.20;;;19.73;;
59512;SDS011;45330;51.634;5.562;2023-02-15T12:38:25;33.55;;;18.38;;
59512;SDS011;45330;51.634;5.562;2023-02-15T12:40:59;34.88;;;19.48;;
59512;SDS011;45330;51.634;5.562;2023-02-15T12:43:31;32.45;;;19.02;;
59512;SDS011;45330;51.634;5.562;2023-02-15T12:46:43;33.45;;;20.02;;
59512;SDS011;45330;51.634;5.562;2023-02-15T12:49:02;35.72;;;20.05;;
59512;SDS011;45330;51.634;5.562;2023-02-15T12:51:31;35.00;;;19.85;;
59512;SDS011;45330;51.634;5.562;2023-02-15T12:59:50;33.38;;;19.60;;
59512;SDS011;45330;51.634;5.562;2023-02-15T13:02:20;35.53;;;18.65;;
59512;SDS011;45330;51.634;5.562;2023-02-15T13:04:48;35.22;;;20.55;;
59512;SDS011;45330;51.634;5.562;2023-02-15T13:07:14;35.63;;;19.83;;
59512;SDS011;45330;51.634;5.562;2023-02-15T13:09:40;34.08;;;20.02;;
59512;SDS011;45330;51.634;5.562;2023-02-15T13:12:23;36.97;;;21.20;;
59512;SDS011;45330;51.634;5.562;2023-02-15T13:14:51;34.75;;;20.30;;
59512;SDS011;45330;51.634;5.562;2023-02-15T13:17:27;34.88;;;20.13;;
59512;SDS011;45330;51.634;5.562;2023-02-15T13:19:57;35.30;;;20.08;;
59512;SDS011;45330;51.634;5.562;2023-02-15T13:22:40;38.00;;;19.50;;
59512;SDS011;45330;51.634;5.562;2023-02-15T13:25:19;35.42;;;20.90;;
59512;SDS011;45330;51.634;5.562;2023-02-15T13:28:00;35.58;;;20.73;;
59512;SDS011;45330;51.634;5.562;2023-02-15T13:30:38;36.72;;;20.65;;
59512;SDS011;45330;51.634;5.562;2023-02-15T13:33:24;35.13;;;20.77;;
59512;SDS011;45330;51.634;5.562;2023-02-15T13:36:01;35.15;;;20.70;;
59512;SDS011;45330;51.634;5.562;2023-02-15T13:41:25;36.83;;;21.08;;
59512;SDS011;45330;51.634;5.562;2023-02-15T13:47:00;37.25;;;21.23;;
59512;SDS011;45330;51.634;5.562;2023-02-15T13:52:27;36.88;;;22.35;;
59512;SDS011;45330;51.634;5.562;2023-02-15T14:00:41;34.88;;;20.17;;
59512;SDS011;45330;51.634;5.562;2023-02-15T14:03:33;36.38;;;21.23;;
59512;SDS011;45330;51.634;5.562;2023-02-15T14:26:09;36.85;;;21.55;;
59512;SDS011;45330;51.634;5.562;2023-02-15T14:28:45;35.65;;;21.42;;
59512;SDS011;45330;51.634;5.562;2023-02-15T14:31:14;34.55;;;21.08;;
59512;SDS011;45330;51.634;5.562;2023-02-15T14:33:42;36.38;;;20.63;;
59512;SDS011;45330;51.634;5.562;2023-02-15T14:36:16;35.72;;;21.35;;
59512;SDS011;45330;51.634;5.562;2023-02-15T14:41:37;35.28;;;20.85;;
59512;SDS011;45330;51.634;5.562;2023-02-15T14:49:38;34.90;;;20.83;;
59512;SDS011;45330;51.634;5.562;2023-02-15T14:59:25;36.60;;;21.95;;
59512;SDS011;45330;51.634;5.562;2023-02-15T15:04:32;33.67;;;20.80;;
59512;SDS011;45330;51.634;5.562;2023-02-15T15:09:46;38.20;;;22.10;;
59512;SDS011;45330;51.634;5.562;2023-02-15T15:14:49;37.13;;;21.30;;
59512;SDS011;45330;51.634;5.562;2023-02-15T15:20:10;34.42;;;18.83;;
59512;SDS011;45330;51.634;5.562;2023-02-15T15:22:38;33.80;;;20.15;;
59512;SDS011;45330;51.634;5.562;2023-02-15T15:25:12;37.08;;;21.08;;
59512;SDS011;45330;51.634;5.562;2023-02-15T15:31:02;36.80;;;19.92;;
59512;SDS011;45330;51.634;5.562;2023-02-15T15:36:30;35.53;;;21.33;;
59512;SDS011;45330;51.634;5.562;2023-02-15T15:49:54;38.70;;;20.80;;
59512;SDS011;45330;51.634;5.562;2023-02-15T15:52:22;36.45;;;21.13;;
59512;SDS011;45330;51.634;5.562;2023-02-15T15:55:02;33.80;;;19.77;;
59512;SDS011;45330;51.634;5.562;2023-02-15T15:57:38;36.13;;;21.35;;
59512;SDS011;45330;51.634;5.562;2023-02-15T16:00:22;36.33;;;21.55;;
59512;SDS011;45330;51.634;5.562;2023-02-15T16:02:55;36.97;;;21.92;;
59512;SDS011;45330;51.634;5.562;2023-02-15T16:05:21;35.92;;;21.63;;
59512;SDS011;45330;51.634;5.562;2023-02-15T16:07:47;37.25;;;21.23;;
59512;SDS011;45330;51.634;5.562;2023-02-15T16:10:24;36.28;;;21.15;;
59512;SDS011;45330;51.634;5.562;2023-02-15T16:12:52;35.42;;;20.58;;
59512;SDS011;45330;51.634;5.562;2023-02-15T16:15:30;36.22;;;21.10;;
59512;SDS011;45330;51.634;5.562;2023-02-15T16:18:01;37.35;;;21.90;;
59512;SDS011;45330;51.634;5.562;2023-02-15T16:20:36;36.15;;;21.70;;
59512;SDS011;45330;51.634;5.562;2023-02-15T16:28:29;37.45;;;21.95;;
59512;SDS011;45330;51.634;5.562;2023-02-15T16:30:58;36.50;;;20.95;;
59512;SDS011;45330;51.634;5.562;2023-02-15T16:33:37;37.80;;;21.58;;
59512;SDS011;45330;51.634;5.562;2023-02-15T16:36:04;36.47;;;22.02;;
59512;SDS011;45330;51.634;5.562;2023-02-15T16:41:09;38.05;;;22.52;;
59512;SDS011;45330;51.634;5.562;2023-02-15T16:46:10;39.92;;;23.23;;
59512;SDS011;45330;51.634;5.562;2023-02-15T16:48:41;40.20;;;22.88;;
59512;SDS011;45330;51.634;5.562;2023-02-15T16:51:10;36.25;;;22.77;;
59512;SDS011;45330;51.634;5.562;2023-02-15T16:53:46;39.60;;;22.98;;
59512;SDS011;45330;51.634;5.562;2023-02-15T16:56:13;38.20;;;21.92;;
59512;SDS011;45330;51.634;5.562;2023-02-15T16:58:41;37.13;;;22.95;;
59512;SDS011;45330;51.634;5.562;2023-02-15T17:01:10;40.38;;;22.35;;
59512;SDS011;45330;51.634;5.562;2023-02-15T17:03:38;41.72;;;23.58;;
59512;SDS011;45330;51.634;5.562;2023-02-15T17:06:05;37.50;;;22.30;;
59512;SDS011;45330;51.634;5.562;2023-02-15T17:08:44;37.67;;;21.92;;
59512;SDS011;45330;51.634;5.562;2023-02-15T17:11:15;37.67;;;22.38;;
59512;SDS011;45330;51.634;5.562;2023-02-15T17:16:34;36.35;;;21.83;;
59512;SDS011;45330;51.634;5.562;2023-02-15T17:19:09;37.80;;;22.17;;
59512;SDS011;45330;51.634;5.562;2023-02-15T17:21:41;38.13;;;22.05;;
59512;SDS011;45330;51.634;5.562;2023-02-15T17:24:18;38.85;;;22.20;;
59512;SDS011;45330;51.634;5.562;2023-02-15T17:26:54;37.95;;;22.35;;
59512;SDS011;45330;51.634;5.562;2023-02-15T17:32:06;36.45;;;20.70;;
59512;SDS011;45330;51.634;5.562;2023-02-15T17:34:45;36.92;;;21.25;;
59512;SDS011;45330;51.634;5.562;2023-02-15T17:40:00;38.50;;;22.25;;
59512;SDS011;45330;51.634;5.562;2023-02-15T17:42:30;40.70;;;23.02;;
59512;SDS011;45330;51.634;5.562;2023-02-15T17:44:56;38.60;;;23.48;;
59512;SDS011;45330;51.634;5.562;2023-02-15T17:47:22;37.13;;;22.83;;
59512;SDS011;45330;51.634;5.562;2023-02-15T17:49:49;39.85;;;22.13;;
59512;SDS011;45330;51.634;5.562;2023-02-15T17:52:15;39.85;;;23.02;;
59512;SDS011;45330;51.634;5.562;2023-02-15T17:54:42;39.47;;;22.15;;
59512;SDS011;45330;51.634;5.562;2023-02-15T17:57:26;38.33;;;23.17;;
59512;SDS011;45330;51.634;5.562;2023-02-15T17:59:53;40.03;;;23.20;;
59512;SDS011;45330;51.634;5.562;2023-02-15T18:02:38;36.70;;;21.90;;
59512;SDS011;45330;51.634;5.562;2023-02-15T18:05:22;37.35;;;23.13;;
59512;SDS011;45330;51.634;5.562;2023-02-15T18:08:16;38.25;;;22.23;;
59512;SDS011;45330;51.634;5.562;2023-02-15T18:11:02;36.88;;;21.85;;
59512;SDS011;45330;51.634;5.562;2023-02-15T18:13:46;40.50;;;24.10;;
59512;SDS011;45330;51.634;5.562;2023-02-15T18:16:15;41.35;;;24.13;;